Time;durP1;ratioP1;P1;durP2;ratioP2;P2;SDS_P1;SDS_P2;PMS_P1;PMS_P2;Temp;Humidity;BMP_temperature;BMP_pressure;BME280_temperature;BME280_humidity;BME280_pressure;Samples;Min_cycle;Max_cycle;Signal;HPM_P1;HPM_P2
2023/08/16 00:01:43;;;;;;;6.40;4.10;;;21.00;98.00;;;;;;5052933;28;20450;-72
2023/08/16 00:04:10;;;;;;;5.80;3.93;;;20.90;98.00;;;;;;5052864;28;20843;-73
2023/08/16 00:06:37;;;;;;;10.50;3.90;;;20.80;98.00;;;;;;5052909;28;20829;-72
2023/08/16 00:09:06;;;;;;;6.30;4.07;;;20.60;98.00;;;;;;5052421;28;20523;-72
2023/08/16 00:11:33;;;;;;;9.00;4.00;;;20.60;98.00;;;;;;5052347;28;20477;-72
2023/08/16 00:14:01;;;;;;;6.77;4.07;;;20.60;98.00;;;;;;5052322;28;20971;-73
2023/08/16 00:16:28;;;;;;;6.17;3.80;;;20.70;98.00;;;;;;5052348;28;20876;-72
2023/08/16 00:18:56;;;;;;;7.73;4.37;;;20.80;98.00;;;;;;5052239;28;20465;-72
2023/08/16 00:21:23;;;;;;;7.77;4.60;;;20.80;98.00;;;;;;5052129;28;20456;-72
2023/08/16 00:23:50;;;;;;;11.87;4.33;;;21.00;98.00;;;;;;5052275;28;20469;-73
2023/08/16 00:26:18;;;;;;;7.73;4.33;;;20.80;98.00;;;;;;5051968;28;20449;-73
2023/08/16 00:28:47;;;;;;;8.63;4.27;;;20.70;98.00;;;;;;5052098;28;20454;-72
2023/08/16 00:31:15;;;;;;;7.83;4.30;;;20.60;98.00;;;;;;5051874;28;20611;-72
2023/08/16 00:33:42;;;;;;;7.53;4.50;;;20.60;98.00;;;;;;5051836;28;20523;-73
2023/08/16 00:36:09;;;;;;;10.40;4.67;;;20.60;98.00;;;;;;5051672;28;20457;-72
2023/08/16 00:38:42;;;;;;;8.70;4.33;;;20.60;98.00;;;;;;5052150;28;20960;-73
2023/08/16 00:41:09;;;;;;;6.27;3.87;;;20.60;98.00;;;;;;5051859;28;20452;-72
2023/08/16 00:43:37;;;;;;;6.07;4.13;;;20.80;98.00;;;;;;5051946;28;20739;-73
2023/08/16 00:46:07;;;;;;;7.00;4.00;;;21.00;98.00;;;;;;5051622;28;20446;-73
2023/08/16 00:48:35;;;;;;;5.77;3.97;;;21.00;98.00;;;;;;5051875;28;20461;-71
2023/08/16 00:51:04;;;;;;;6.90;4.30;;;20.70;98.00;;;;;;5051487;28;20517;-73
2023/08/16 00:53:33;;;;;;;7.80;4.30;;;20.50;98.00;;;;;;5051861;28;20477;-72
2023/08/16 00:56:00;;;;;;;5.60;4.03;;;20.40;98.00;;;;;;5051681;28;20775;-72
2023/08/16 00:58:31;;;;;;;8.30;4.70;;;20.40;98.00;;;;;;5051918;28;20465;-72
2023/08/16 01:01:00;;;;;;;7.87;4.20;;;20.40;98.00;;;;;;5051546;28;20967;-72
2023/08/16 01:03:27;;;;;;;8.33;4.50;;;20.30;98.00;;;;;;5051638;28;20457;-71
2023/08/16 01:05:54;;;;;;;8.63;4.13;;;20.30;98.00;;;;;;5051616;28;20865;-72
2023/08/16 01:08:21;;;;;;;8.20;4.33;;;20.40;98.00;;;;;;5051433;28;20448;-72
2023/08/16 01:10:55;;;;;;;7.57;4.53;;;20.70;98.00;;;;;;5051309;28;20860;-72
2023/08/16 01:13:27;;;;;;;8.07;4.47;;;20.60;98.00;;;;;;5051238;28;20454;-71
2023/08/16 01:16:00;;;;;;;9.13;4.30;;;20.50;98.00;;;;;;5051209;28;20855;-72
2023/08/16 01:18:31;;;;;;;6.97;4.30;;;20.40;98.00;;;;;;5051242;28;20450;-73
2023/08/16 01:20:58;;;;;;;5.80;3.80;;;20.50;98.00;;;;;;5051095;28;20460;-72
2023/08/16 01:23:35;;;;;;;9.53;4.50;;;20.70;98.00;;;;;;5049903;28;20461;-72
2023/08/16 01:26:07;;;;;;;7.80;4.30;;;20.90;98.00;;;;;;5051078;28;20446;-72
2023/08/16 01:28:37;;;;;;;7.60;4.87;;;20.60;98.00;;;;;;5051193;28;20450;-74
2023/08/16 01:31:06;;;;;;;8.33;4.87;;;20.30;98.00;;;;;;5051060;28;20532;-72
2023/08/16 01:33:33;;;;;;;5.47;3.90;;;20.20;98.00;;;;;;5051141;28;20469;-72
2023/08/16 01:36:00;;;;;;;6.90;4.20;;;20.20;98.00;;;;;;5050859;28;20474;-72
2023/08/16 01:38:28;;;;;;;6.53;4.20;;;20.30;98.00;;;;;;5051241;28;20825;-71
2023/08/16 01:41:01;;;;;;;7.27;4.77;;;20.20;98.00;;;;;;5050867;28;20454;-72
2023/08/16 01:43:31;;;;;;;10.60;4.97;;;20.10;98.00;;;;;;5051089;28;20454;-72
2023/08/16 01:46:01;;;;;;;8.07;4.40;;;20.10;98.00;;;;;;5050924;28;20481;-71
2023/08/16 01:48:29;;;;;;;6.97;3.97;;;20.20;98.00;;;;;;5054949;28;20450;-72
2023/08/16 01:50:57;;;;;;;8.63;3.80;;;20.20;98.00;;;;;;5055098;28;21029;-73
2023/08/16 01:53:24;;;;;;;9.43;4.77;;;20.20;98.00;;;;;;5055335;28;20449;-72
2023/08/16 01:55:51;;;;;;;7.87;4.60;;;20.20;98.00;;;;;;5055021;28;20955;-72
2023/08/16 01:58:18;;;;;;;6.80;4.07;;;20.30;98.00;;;;;;5054947;28;20452;-73
2023/08/16 02:00:46;;;;;;;7.90;4.60;;;20.40;98.00;;;;;;5054941;28;20454;-72
2023/08/16 02:03:14;;;;;;;6.10;3.87;;;20.40;98.00;;;;;;5055024;28;20933;-73
2023/08/16 02:05:41;;;;;;;8.63;4.43;;;20.20;98.00;;;;;;5055081;28;20441;-72
2023/08/16 02:08:10;;;;;;;7.90;4.60;;;20.20;98.00;;;;;;5055048;28;20461;-73
2023/08/16 02:10:37;;;;;;;7.00;4.37;;;20.20;98.00;;;;;;5054920;28;20573;-72
2023/08/16 02:13:04;;;;;;;13.33;4.47;;;20.10;98.00;;;;;;5054728;28;20453;-72
2023/08/16 02:15:31;;;;;;;6.53;4.13;;;20.20;98.00;;;;;;5054460;28;20456;-71
2023/08/16 02:17:59;;;;;;;9.57;4.40;;;20.10;98.00;;;;;;5054427;28;20449;-72
2023/08/16 02:20:27;;;;;;;7.80;4.50;;;20.20;98.00;;;;;;5053210;28;20450;-72
2023/08/16 02:22:54;;;;;;;6.40;4.20;;;20.40;98.00;;;;;;5054470;28;20456;-72
2023/08/16 02:25:21;;;;;;;6.73;4.30;;;20.40;98.00;;;;;;5054524;28;20449;-72
2023/08/16 02:27:48;;;;;;;7.30;4.50;;;20.40;98.00;;;;;;5054260;28;20457;-73
2023/08/16 02:30:15;;;;;;;9.93;4.50;;;20.40;98.00;;;;;;5054142;28;20982;-72
2023/08/16 02:32:42;;;;;;;6.70;4.17;;;20.30;98.00;;;;;;5054096;28;20497;-72
2023/08/16 02:35:10;;;;;;;9.03;4.20;;;20.20;98.00;;;;;;5054264;28;20951;-72
2023/08/16 02:37:38;;;;;;;10.80;4.73;;;20.10;98.00;;;;;;5054285;28;20461;-72
2023/08/16 02:40:07;;;;;;;8.10;4.07;;;20.00;98.00;;;;;;5054178;28;20446;-73
2023/08/16 02:42:35;;;;;;;8.00;5.10;;;19.90;98.00;;;;;;5053942;28;20450;-71
2023/08/16 02:45:03;;;;;;;7.20;4.80;;;19.80;98.00;;;;;;5054288;28;20464;-72
2023/08/16 02:47:30;;;;;;;7.90;4.60;;;19.70;98.00;;;;;;5054303;28;20849;-72
2023/08/16 02:49:57;;;;;;;7.63;4.40;;;19.70;98.00;;;;;;5053988;28;20460;-72
2023/08/16 02:52:24;;;;;;;12.43;4.40;;;19.60;98.00;;;;;;5054044;28;20481;-73
2023/08/16 02:54:52;;;;;;;7.43;4.23;;;19.80;98.00;;;;;;5053937;28;20461;-73
2023/08/16 02:57:19;;;;;;;7.43;4.40;;;20.00;98.00;;;;;;5053631;28;20473;-73
2023/08/16 02:59:47;;;;;;;6.93;4.43;;;20.10;98.00;;;;;;5053813;28;20458;-72
2023/08/16 03:02:14;;;;;;;8.97;4.50;;;20.10;98.00;;;;;;5053622;28;20500;-72
2023/08/16 03:04:41;;;;;;;8.23;4.43;;;20.00;98.00;;;;;;5052473;28;20863;-72
2023/08/16 03:07:09;;;;;;;6.57;4.17;;;20.00;98.00;;;;;;5053551;28;20973;-72
2023/08/16 03:09:37;;;;;;;7.33;4.50;;;20.00;98.00;;;;;;5053763;28;20458;-73
2023/08/16 03:12:07;;;;;;;9.13;4.70;;;19.90;98.00;;;;;;5053665;28;20855;-72
2023/08/16 03:14:34;;;;;;;6.73;4.57;;;19.70;98.00;;;;;;5053985;28;20457;-73
2023/08/16 03:17:01;;;;;;;6.60;4.50;;;19.70;98.00;;;;;;5269583;22;20489;-70
2023/08/16 03:19:28;;;;;;;10.93;4.90;;;19.70;98.00;;;;;;5053459;28;20449;-70
2023/08/16 03:21:56;;;;;;;6.93;4.70;;;19.80;98.00;;;;;;5053332;28;20457;-70
2023/08/16 03:24:23;;;;;;;8.93;4.80;;;19.90;98.00;;;;;;5053231;28;20567;-70
2023/08/16 03:26:50;;;;;;;7.87;4.40;;;19.80;98.00;;;;;;5053369;28;20486;-70
2023/08/16 03:29:19;;;;;;;9.67;4.57;;;19.70;98.00;;;;;;5052468;28;20488;-70
2023/08/16 03:31:46;;;;;;;6.27;4.07;;;19.70;98.00;;;;;;5053300;28;20507;-70
2023/08/16 03:34:13;;;;;;;8.13;4.30;;;19.70;98.00;;;;;;5053289;28;20445;-70
2023/08/16 03:36:40;;;;;;;8.57;4.40;;;19.70;98.00;;;;;;5053032;28;20450;-70
2023/08/16 03:39:08;;;;;;;5.73;3.90;;;20.00;98.00;;;;;;5053052;28;20454;-70
2023/08/16 03:41:37;;;;;;;7.83;4.33;;;20.10;98.00;;;;;;5051784;28;20450;-70
2023/08/16 03:44:06;;;;;;;9.03;4.80;;;19.90;98.00;;;;;;5053073;28;20537;-70
2023/08/16 03:46:34;;;;;;;8.47;4.77;;;19.80;98.00;;;;;;5052895;28;20483;-70
2023/08/16 03:49:03;;;;;;;6.73;4.20;;;19.80;98.00;;;;;;5052876;28;20446;-70
2023/08/16 03:51:30;;;;;;;5.83;4.00;;;19.50;98.00;;;;;;5052749;28;20509;-70
2023/08/16 03:54:05;;;;;;;8.87;4.50;;;19.40;98.00;;;;;;5051733;28;20457;-70
2023/08/16 03:56:32;;;;;;;7.17;4.10;;;19.40;98.00;;;;;;5052848;28;20875;-70
2023/08/16 03:58:59;;;;;;;10.00;4.80;;;19.50;98.00;;;;;;5051525;28;20507;-70
2023/08/16 04:01:27;;;;;;;6.43;4.40;;;19.40;98.00;;;;;;5052627;28;20457;-70
2023/08/16 04:03:56;;;;;;;8.40;4.50;;;19.40;98.00;;;;;;5052610;28;21030;-70
2023/08/16 04:06:23;;;;;;;8.03;4.70;;;19.40;98.00;;;;;;5052483;28;20453;-70
2023/08/16 04:08:50;;;;;;;6.87;4.30;;;19.40;98.00;;;;;;5052489;28;20454;-70
2023/08/16 04:11:17;;;;;;;6.03;4.03;;;19.40;98.00;;;;;;5052271;28;21122;-70
2023/08/16 04:13:44;;;;;;;8.90;5.13;;;19.40;98.00;;;;;;5052498;28;20450;-70
2023/08/16 04:16:11;;;;;;;8.90;4.63;;;19.40;98.00;;;;;;5052148;28;20475;-70
2023/08/16 04:18:39;;;;;;;6.13;4.37;;;19.50;98.00;;;;;;5052014;28;20442;-70
2023/08/16 04:21:07;;;;;;;8.97;4.70;;;19.40;98.00;;;;;;5052333;28;20457;-70
2023/08/16 04:23:34;;;;;;;13.60;4.80;;;19.40;98.00;;;;;;5052539;28;20457;-70
2023/08/16 04:26:01;;;;;;;9.90;4.90;;;19.50;98.00;;;;;;5052350;28;20461;-70
2023/08/16 04:28:28;;;;;;;12.87;5.40;;;19.60;98.00;;;;;;5052341;28;20890;-70
2023/08/16 04:30:55;;;;;;;6.97;4.73;;;19.80;98.00;;;;;;5050891;28;20442;-70
2023/08/16 04:33:25;;;;;;;8.50;5.17;;;19.80;98.00;;;;;;5052056;28;20493;-70
2023/08/16 04:35:53;;;;;;;8.63;4.60;;;19.80;98.00;;;;;;5052352;28;20482;-70
2023/08/16 04:38:22;;;;;;;8.23;4.93;;;19.90;98.00;;;;;;5052066;28;20626;-70
2023/08/16 04:40:50;;;;;;;11.30;4.60;;;19.90;98.00;;;;;;5052138;28;20857;-70
2023/08/16 04:43:18;;;;;;;7.00;4.70;;;19.80;98.00;;;;;;5051821;28;20482;-70
2023/08/16 04:45:45;;;;;;;7.20;4.63;;;19.70;98.00;;;;;;5051403;28;20541;-70
2023/08/16 04:48:12;;;;;;;8.37;4.80;;;19.80;98.00;;;;;;5051815;28;20454;-70
2023/08/16 04:50:39;;;;;;;7.83;5.27;;;20.00;98.00;;;;;;5051733;28;20453;-70
2023/08/16 04:53:07;;;;;;;11.97;5.40;;;20.00;98.00;;;;;;5051678;28;21080;-70
2023/08/16 04:55:35;;;;;;;8.07;4.67;;;19.90;98.00;;;;;;5051690;28;20951;-70
2023/08/16 04:58:03;;;;;;;9.43;5.47;;;19.80;98.00;;;;;;5051591;28;20470;-70
2023/08/16 05:00:30;;;;;;;9.97;5.20;;;19.70;98.00;;;;;;5051590;28;20856;-70
2023/08/16 05:02:57;;;;;;;8.17;5.17;;;19.70;98.00;;;;;;5051541;28;20445;-70
2023/08/16 05:05:24;;;;;;;7.03;4.83;;;19.70;98.00;;;;;;5051619;28;20826;-70
2023/08/16 05:07:51;;;;;;;9.07;4.80;;;19.70;98.00;;;;;;5051545;28;20969;-70
2023/08/16 05:10:18;;;;;;;8.50;4.83;;;19.80;98.00;;;;;;5051431;28;20830;-70
2023/08/16 05:12:47;;;;;;;10.27;5.20;;;19.80;98.00;;;;;;5050213;28;20489;-70
2023/08/16 05:15:15;;;;;;;9.00;5.50;;;19.70;98.00;;;;;;5052566;28;21061;-71
2023/08/16 05:17:42;;;;;;;12.57;5.73;;;19.80;98.00;;;;;;5052880;28;20555;-70
2023/08/16 05:20:10;;;;;;;11.13;5.43;;;19.70;98.00;;;;;;5052653;28;20453;-70
2023/08/16 05:22:37;;;;;;;8.50;5.00;;;19.60;98.00;;;;;;5050101;28;20458;-70
2023/08/16 05:25:05;;;;;;;10.17;5.43;;;19.60;98.00;;;;;;5051129;28;20458;-70
2023/08/16 05:27:32;;;;;;;7.20;4.77;;;19.70;98.00;;;;;;5051510;28;20993;-70
2023/08/16 05:30:03;;;;;;;8.60;4.90;;;19.80;98.00;;;;;;5052462;28;20454;-70
2023/08/16 05:32:30;;;;;;;12.30;5.53;;;19.90;98.00;;;;;;5052431;28;20549;-70
2023/08/16 05:34:57;;;;;;;8.70;5.00;;;20.00;98.00;;;;;;5050745;28;20842;-70
2023/08/16 05:37:24;;;;;;;8.70;5.17;;;20.00;98.00;;;;;;5051170;28;20458;-70
2023/08/16 05:39:51;;;;;;;8.07;5.13;;;19.90;98.00;;;;;;5050954;28;20843;-70
2023/08/16 05:42:18;;;;;;;10.00;4.80;;;19.90;98.00;;;;;;5050965;28;20454;-70
2023/08/16 05:44:45;;;;;;;10.17;5.80;;;20.00;98.00;;;;;;5050983;28;20469;-70
2023/08/16 05:47:14;;;;;;;8.23;4.93;;;20.00;98.00;;;;;;5050986;28;20457;-70
2023/08/16 05:49:41;;;;;;;10.10;5.30;;;20.10;98.00;;;;;;5051003;28;20450;-70
2023/08/16 05:52:13;;;;;;;9.63;5.37;;;20.20;98.00;;;;;;5050929;28;20485;-70
2023/08/16 05:54:40;;;;;;;9.50;5.60;;;20.30;98.00;;;;;;5049748;28;20472;-70
2023/08/16 05:57:07;;;;;;;10.27;5.63;;;20.40;98.00;;;;;;5050904;28;20448;-70
2023/08/16 05:59:34;;;;;;;12.87;5.33;;;20.50;98.00;;;;;;5051023;28;20457;-70
2023/08/16 06:02:01;;;;;;;8.00;5.03;;;20.60;98.00;;;;;;5050956;28;20446;-70
2023/08/16 06:04:30;;;;;;;16.33;5.50;;;20.70;98.00;;;;;;5051049;28;20464;-67
2023/08/16 06:06:57;;;;;;;8.00;4.53;;;20.80;98.00;;;;;;5050796;28;20489;-67
2023/08/16 06:09:24;;;;;;;9.10;5.20;;;20.90;98.00;;;;;;5049872;28;20450;-67
2023/08/16 06:11:51;;;;;;;7.30;4.60;;;21.00;98.00;;;;;;5050880;28;20974;-67
2023/08/16 06:14:18;;;;;;;8.37;4.93;;;21.10;98.00;;;;;;5050967;28;21013;-67
2023/08/16 06:16:46;;;;;;;7.10;4.60;;;21.20;98.00;;;;;;5050739;28;20935;-67
2023/08/16 06:19:13;;;;;;;8.67;4.87;;;21.30;98.00;;;;;;5050654;28;20500;-67
2023/08/16 06:21:42;;;;;;;8.70;4.93;;;21.40;98.00;;;;;;5050726;28;20480;-67
2023/08/16 06:24:10;;;;;;;11.63;4.90;;;21.60;98.00;;;;;;5050336;28;20462;-68
2023/08/16 06:26:39;;;;;;;7.53;5.13;;;21.70;98.00;;;;;;5050868;28;20480;-67
2023/08/16 06:29:06;;;;;;;9.10;5.20;;;21.80;98.00;;;;;;5050635;28;20450;-68
2023/08/16 06:31:34;;;;;;;8.77;5.10;;;22.00;98.00;;;;;;5050636;28;20454;-66
2023/08/16 06:34:01;;;;;;;5.43;3.67;;;22.20;98.00;;;;;;5053324;28;20497;-66
2023/08/16 06:36:28;;;;;;;8.13;5.23;;;22.30;98.00;;;;;;5054233;28;20461;-66
2023/08/16 06:38:56;;;;;;;7.30;4.90;;;22.40;98.00;;;;;;5054116;28;20457;-66
2023/08/16 06:41:23;;;;;;;12.63;6.73;;;22.40;98.00;;;;;;5054277;28;20452;-66
2023/08/16 06:43:50;;;;;;;7.57;4.73;;;22.60;98.00;;;;;;5054176;28;20854;-66
2023/08/16 06:46:17;;;;;;;7.73;4.50;;;22.80;98.00;;;;;;5052787;28;20458;-66
2023/08/16 06:48:47;;;;;;;7.73;4.90;;;23.00;98.00;;;;;;5052825;28;20947;-66
2023/08/16 06:51:15;;;;;;;11.63;5.00;;;23.20;98.00;;;;;;5053843;28;20946;-66
2023/08/16 06:53:44;;;;;;;7.50;5.10;;;23.40;98.00;;;;;;5054001;28;20516;-66
2023/08/16 06:56:13;;;;;;;10.20;5.30;;;23.50;98.00;;;;;;5053907;28;20456;-66
2023/08/16 06:58:41;;;;;;;7.70;4.93;;;23.60;98.00;;;;;;5053911;28;20461;-66
2023/08/16 07:01:09;;;;;;;10.10;4.90;;;23.70;98.00;;;;;;5053791;28;20552;-66
2023/08/16 07:03:36;;;;;;;9.20;5.57;;;23.80;98.00;;;;;;5053960;28;20496;-66
2023/08/16 07:06:03;;;;;;;7.73;5.00;;;23.90;98.00;;;;;;5053915;28;20454;-67
2023/08/16 07:08:30;;;;;;;7.40;4.90;;;23.90;98.00;;;;;;5054052;28;20450;-66
2023/08/16 07:10:57;;;;;;;10.13;5.40;;;24.00;98.00;;;;;;5053644;28;20456;-66
2023/08/16 07:13:25;;;;;;;10.03;5.97;;;23.90;98.00;;;;;;5053618;28;20489;-67
2023/08/16 07:15:52;;;;;;;9.30;5.90;;;24.00;98.00;;;;;;5051873;28;20531;-67
2023/08/16 07:18:19;;;;;;;10.50;5.43;;;24.00;98.00;;;;;;5053241;28;20454;-67
2023/08/16 07:20:47;;;;;;;11.73;5.70;;;24.10;98.00;;;;;;5053511;28;20457;-67
2023/08/16 07:23:14;;;;;;;10.80;5.33;;;24.30;98.00;;;;;;5052092;28;20939;-67
2023/08/16 07:25:41;;;;;;;8.93;5.47;;;24.40;98.00;;;;;;5053246;28;20457;-67
2023/08/16 07:28:08;;;;;;;10.73;5.80;;;24.60;98.00;;;;;;5051977;28;20454;-68
2023/08/16 07:30:38;;;;;;;9.77;5.30;;;24.70;98.00;;;;;;5052823;28;20508;-67
2023/08/16 07:33:11;;;;;;;9.03;5.80;;;24.80;98.00;;;;;;5052998;28;20485;-67
2023/08/16 07:35:38;;;;;;;8.67;5.63;;;24.90;98.00;;;;;;5053163;28;20478;-67
2023/08/16 07:38:05;;;;;;;10.50;6.13;;;25.00;98.00;;;;;;5052972;28;20460;-67
2023/08/16 07:40:32;;;;;;;10.40;5.57;;;24.90;98.00;;;;;;5052844;28;20446;-67
2023/08/16 07:42:59;;;;;;;10.73;5.97;;;24.90;98.00;;;;;;5051748;28;20442;-68
2023/08/16 07:45:26;;;;;;;10.53;6.17;;;24.90;98.00;;;;;;5050825;28;20446;-68
2023/08/16 07:47:55;;;;;;;10.80;5.80;;;24.70;98.00;;;;;;5052763;28;20465;-68
2023/08/16 07:50:22;;;;;;;9.43;5.63;;;24.60;98.00;;;;;;5052643;28;20458;-68
2023/08/16 07:52:49;;;;;;;9.80;6.07;;;24.60;98.00;;;;;;5052875;28;20485;-68
2023/08/16 07:55:20;;;;;;;11.27;6.40;;;24.70;98.00;;;;;;5052578;28;20537;-68
2023/08/16 07:57:47;;;;;;;11.23;6.20;;;24.60;98.00;;;;;;5053023;28;20513;-69
2023/08/16 08:00:15;;;;;;;11.43;6.53;;;24.60;98.00;;;;;;5053079;28;20445;-68
2023/08/16 08:02:43;;;;;;;10.97;6.20;;;24.60;98.00;;;;;;5058692;28;20461;-68
2023/08/16 08:05:14;;;;;;;10.63;5.43;;;24.60;98.00;;;;;;5051765;28;20485;-68
2023/08/16 08:07:41;;;;;;;8.70;5.47;;;24.50;98.00;;;;;;5050647;28;20959;-68
2023/08/16 08:10:09;;;;;;;10.83;5.93;;;24.50;98.00;;;;;;5050465;28;20465;-68
2023/08/16 08:12:37;;;;;;;10.33;6.10;;;24.80;98.00;;;;;;5051742;28;20469;-68
2023/08/16 08:15:05;;;;;;;9.87;6.27;;;24.90;98.00;;;;;;5052070;28;20454;-68
2023/08/16 08:17:32;;;;;;;9.20;6.27;;;24.90;98.00;;;;;;5052130;28;20552;-68
2023/08/16 08:19:59;;;;;;;17.03;7.50;;;25.00;98.00;;;;;;5052148;28;20457;-68
2023/08/16 08:22:27;;;;;;;9.70;6.30;;;25.20;98.00;;;;;;5052134;28;20465;-68
2023/08/16 08:24:54;;;;;;;9.73;6.13;;;25.30;98.00;;;;;;5051767;28;20458;-69
2023/08/16 08:27:21;;;;;;;10.27;6.30;;;25.50;98.00;;;;;;5052235;28;20462;-69
2023/08/16 08:29:49;;;;;;;9.70;6.33;;;25.50;98.00;;;;;;5052187;28;20822;-69
2023/08/16 08:32:17;;;;;;;9.80;6.10;;;25.60;98.00;;;;;;5051626;28;20454;-69
2023/08/16 08:34:44;;;;;;;9.93;6.50;;;25.70;98.00;;;;;;5243239;22;20480;-69
2023/08/16 08:37:11;;;;;;;10.43;6.50;;;25.70;98.00;;;;;;5067338;28;20457;-69
2023/08/16 08:39:40;;;;;;;13.00;6.77;;;25.90;98.00;;;;;;5071699;28;20552;-69
2023/08/16 08:42:10;;;;;;;12.07;6.47;;;25.90;98.00;;;;;;5072130;28;20830;-69
2023/08/16 08:44:39;;;;;;;9.67;6.13;;;26.10;98.00;;;;;;5071847;28;20468;-69
2023/08/16 08:47:08;;;;;;;9.90;6.57;;;26.20;98.00;;;;;;5071319;28;20461;-69
2023/08/16 08:49:35;;;;;;;10.67;6.30;;;26.30;98.00;;;;;;5071473;28;20453;-69
2023/08/16 08:52:04;;;;;;;16.50;6.47;;;26.50;98.00;;;;;;5071642;28;20536;-69
2023/08/16 08:54:31;;;;;;;9.17;5.50;;;26.40;98.00;;;;;;5071686;28;20523;-69
2023/08/16 08:57:00;;;;;;;11.37;6.90;;;26.30;98.00;;;;;;5071510;28;20441;-69
2023/08/16 08:59:29;;;;;;;11.53;6.87;;;26.30;98.00;;;;;;5071930;28;20453;-69
2023/08/16 09:01:58;;;;;;;11.70;7.23;;;26.30;98.00;;;;;;5070548;28;20498;-69
2023/08/16 09:04:26;;;;;;;11.70;7.03;;;26.40;98.00;;;;;;5071659;28;20494;-69
2023/08/16 09:06:54;;;;;;;10.33;6.43;;;26.40;98.00;;;;;;5071533;28;20453;-69
2023/08/16 09:09:22;;;;;;;11.37;6.73;;;26.40;98.00;;;;;;5071720;28;20543;-69
2023/08/16 09:11:49;;;;;;;10.10;6.43;;;26.60;98.00;;;;;;5071455;28;20527;-69
2023/08/16 09:14:19;;;;;;;11.20;6.50;;;26.70;98.00;;;;;;5071244;28;21068;-69
2023/08/16 09:16:46;;;;;;;11.00;6.30;;;26.60;98.00;;;;;;5070255;28;20514;-69
2023/08/16 09:19:14;;;;;;;10.90;6.40;;;26.60;98.00;;;;;;5071419;28;20455;-69
2023/08/16 09:21:42;;;;;;;9.80;5.90;;;26.80;98.00;;;;;;5071410;28;20527;-69
2023/08/16 09:24:10;;;;;;;11.60;7.23;;;27.10;98.00;;;;;;5069981;28;20461;-69
2023/08/16 09:26:38;;;;;;;11.97;6.40;;;27.30;98.00;;;;;;5071361;28;20536;-69
2023/08/16 09:29:06;;;;;;;9.50;6.00;;;27.50;98.00;;;;;;5071539;28;20456;-70
2023/08/16 09:31:41;;;;;;;10.50;6.80;;;27.70;98.00;;;;;;5071036;28;20448;-69
2023/08/16 09:34:09;;;;;;;11.50;6.90;;;27.80;98.00;;;;;;5071105;28;20480;-70
2023/08/16 09:36:36;;;;;;;11.37;6.50;;;27.80;98.00;;;;;;5070954;28;20828;-69
2023/08/16 09:39:08;;;;;;;12.67;6.60;;;27.90;98.00;;;;;;5071059;28;20449;-69
2023/08/16 09:41:36;;;;;;;10.70;6.47;;;28.00;98.00;;;;;;5071261;28;20453;-69
2023/08/16 09:44:05;;;;;;;9.43;6.43;;;28.20;98.00;;;;;;5070990;28;20481;-69
2023/08/16 09:46:33;;;;;;;10.90;6.93;;;28.20;98.00;;;;;;5071001;28;20506;-69
2023/08/16 09:49:07;;;;;;;10.17;6.47;;;28.20;98.00;;;;;;5071128;28;20837;-69
2023/08/16 09:51:36;;;;;;;19.60;7.40;;;28.10;98.00;;;;;;5071127;28;20447;-70
2023/08/16 09:54:09;;;;;;;12.80;7.90;;;28.20;98.00;;;;;;5071632;28;20501;-70
2023/08/16 09:56:36;;;;;;;10.40;6.60;;;28.40;98.00;;;;;;5071672;28;20452;-70
2023/08/16 09:59:04;;;;;;;14.00;7.27;;;28.40;98.00;;;;;;5071771;28;20923;-69
2023/08/16 10:01:31;;;;;;;12.60;6.80;;;28.50;98.00;;;;;;5070477;28;20445;-70
2023/08/16 10:03:59;;;;;;;10.27;6.20;;;28.60;98.00;;;;;;5071602;28;20466;-70
2023/08/16 10:06:28;;;;;;;11.23;6.20;;;28.90;98.00;;;;;;5071449;28;20453;-69
2023/08/16 10:08:57;;;;;;;8.50;6.27;;;29.10;98.00;;;;;;5074517;28;20460;-70
2023/08/16 10:11:25;;;;;;;8.90;5.27;;;29.40;98.00;;;;;;5074366;28;20440;-70
2023/08/16 10:13:52;;;;;;;9.47;6.00;;;29.80;98.00;;;;;;5075323;28;20484;-70
2023/08/16 10:16:23;;;;;;;7.77;5.13;;;30.10;98.00;;;;;;5074533;28;20457;-68
2023/08/16 10:18:54;;;;;;;8.17;4.97;;;30.40;98.00;;;;;;5075357;28;20456;-70
2023/08/16 10:21:23;;;;;;;6.70;4.90;;;30.40;98.00;;;;;;5075308;28;20456;-70
2023/08/16 10:23:54;;;;;;;7.90;4.83;;;30.60;98.00;;;;;;5075332;28;20542;-71
2023/08/16 10:26:25;;;;;;;9.03;5.17;;;30.80;98.00;;;;;;5075166;28;20464;-71
2023/08/16 10:28:55;;;;;;;8.50;4.60;;;31.00;98.00;;;;;;5075122;28;20460;-70
2023/08/16 10:31:27;;;;;;;6.03;4.60;;;31.20;98.00;;;;;;5073751;28;20453;-71
2023/08/16 10:33:57;;;;;;;9.00;5.30;;;31.30;98.00;;;;;;5075168;28;20520;-71
2023/08/16 10:36:24;;;;;;;7.80;5.00;;;31.40;98.00;;;;;;5074843;28;20457;-68
2023/08/16 10:39:03;;;;;;;7.57;5.40;;;31.50;98.00;;;;;;5075125;28;20955;-70
2023/08/16 10:41:40;;;;;;;7.53;5.17;;;31.60;98.00;;;;;;5075134;28;20448;-70
2023/08/16 10:44:08;;;;;;;7.10;5.07;;;31.80;98.00;;;;;;5075103;28;20480;-69
2023/08/16 10:46:36;;;;;;;6.73;4.63;;;31.90;98.00;;;;;;5075169;28;20445;-70
2023/08/16 10:49:05;;;;;;;7.50;4.80;;;32.00;97.30;;;;;;5074986;28;20448;-70
2023/08/16 10:51:43;;;;;;;8.60;5.07;;;32.20;98.00;;;;;;5073606;28;20807;-71
2023/08/16 10:54:12;;;;;;;11.80;5.80;;;32.40;97.90;;;;;;5074586;28;20492;-70
2023/08/16 10:56:44;;;;;;;6.87;4.87;;;32.50;98.00;;;;;;5074502;28;20821;-70
2023/08/16 10:59:12;;;;;;;6.77;4.63;;;32.50;96.60;;;;;;5074550;28;20535;-71
2023/08/16 11:01:46;;;;;;;8.23;4.93;;;32.50;96.90;;;;;;5074613;28;20453;-70
2023/08/16 11:04:13;;;;;;;6.33;4.40;;;32.70;98.00;;;;;;5073453;28;20491;-70
2023/08/16 11:06:41;;;;;;;7.60;4.63;;;32.80;94.70;;;;;;5073216;28;20536;-70
2023/08/16 11:09:08;;;;;;;6.83;4.73;;;32.90;97.10;;;;;;5074354;28;20456;-70
2023/08/16 11:11:43;;;;;;;8.33;4.90;;;33.10;96.10;;;;;;5074597;28;20445;-70
2023/08/16 11:14:10;;;;;;;8.93;4.83;;;33.10;94.80;;;;;;5074374;28;20831;-70
2023/08/16 11:16:37;;;;;;;6.90;4.90;;;33.10;98.00;;;;;;5073384;28;20456;-71
2023/08/16 11:19:06;;;;;;;7.40;4.73;;;33.00;98.00;;;;;;5072818;28;20441;-71
2023/08/16 11:21:34;;;;;;;8.00;4.83;;;33.10;97.30;;;;;;5074111;28;20946;-71
2023/08/16 11:24:02;;;;;;;6.80;4.53;;;33.10;97.60;;;;;;5074206;28;20452;-71
2023/08/16 11:26:39;;;;;;;7.43;4.43;;;33.20;94.10;;;;;;5074277;28;20449;-72
2023/08/16 11:29:06;;;;;;;8.03;4.53;;;33.30;92.80;;;;;;5074276;28;20449;-71
2023/08/16 11:31:34;;;;;;;6.57;4.70;;;33.40;94.50;;;;;;5074127;28;20453;-71
2023/08/16 11:34:02;;;;;;;5.90;4.57;;;33.50;94.50;;;;;;5073914;28;20516;-71
2023/08/16 11:36:29;;;;;;;6.43;4.20;;;33.60;93.40;;;;;;5074246;28;20909;-72
2023/08/16 11:38:56;;;;;;;7.60;4.97;;;33.80;94.30;;;;;;5074164;28;20461;-71
2023/08/16 11:41:23;;;;;;;8.30;5.13;;;33.80;92.20;;;;;;5073861;28;20456;-72
2023/08/16 11:44:00;;;;;;;7.03;4.40;;;33.80;93.10;;;;;;5074077;28;20453;-71
2023/08/16 11:46:27;;;;;;;9.97;5.93;;;34.00;91.20;;;;;;5073646;28;20899;-70
2023/08/16 11:48:55;;;;;;;7.73;5.20;;;34.20;93.30;;;;;;5073858;28;20449;-72
2023/08/16 11:51:22;;;;;;;8.53;5.20;;;34.10;94.20;;;;;;5072260;28;20457;-71
2023/08/16 11:53:49;;;;;;;7.40;5.30;;;34.10;95.10;;;;;;5073608;28;20476;-71
2023/08/16 11:56:16;;;;;;;8.03;5.17;;;34.00;95.40;;;;;;5073302;28;20860;-71
2023/08/16 11:58:45;;;;;;;7.10;5.00;;;34.00;97.20;;;;;;5073594;28;20449;-70
2023/08/16 12:01:15;;;;;;;7.00;5.13;;;34.00;94.30;;;;;;5073169;28;20449;-71
2023/08/16 12:03:43;;;;;;;5.70;4.33;;;34.10;93.80;;;;;;5073441;28;20535;-71
2023/08/16 12:06:11;;;;;;;8.90;4.90;;;34.30;94.40;;;;;;5073115;28;20460;-70
2023/08/16 12:08:47;;;;;;;6.73;4.40;;;34.50;91.90;;;;;;5073139;28;20449;-71
2023/08/16 12:11:14;;;;;;;7.30;4.53;;;34.40;92.60;;;;;;5071634;28;20847;-71
2023/08/16 12:13:41;;;;;;;5.83;4.57;;;34.20;91.50;;;;;;5072076;28;21071;-71
2023/08/16 12:16:08;;;;;;;6.97;4.30;;;34.30;90.00;;;;;;5072749;28;20449;-72
2023/08/16 12:18:39;;;;;;;8.57;4.10;;;34.30;91.30;;;;;;5073289;28;20464;-72
2023/08/16 12:21:05;;;;;;;7.63;4.37;;;34.40;93.80;;;;;;5073172;28;20453;-70
2023/08/16 12:23:34;;;;;;;6.47;4.53;;;34.60;92.10;;;;;;5073391;28;20457;-71
2023/08/16 12:26:01;;;;;;;5.97;4.30;;;34.60;91.20;;;;;;5073147;28;20534;-71
2023/08/16 12:28:28;;;;;;;7.37;4.30;;;34.60;90.80;;;;;;5073213;28;21710;-70
2023/08/16 12:30:55;;;;;;;7.47;4.57;;;34.80;89.20;;;;;;5072779;28;20460;-71
2023/08/16 12:33:22;;;;;;;6.83;4.27;;;35.00;87.50;;;;;;5072212;28;20445;-71
2023/08/16 12:35:51;;;;;;;5.90;4.20;;;34.90;85.30;;;;;;5071491;28;20485;-70
2023/08/16 12:38:19;;;;;;;4.90;3.13;;;35.00;90.20;;;;;;5073044;28;20452;-69
2023/08/16 12:40:46;;;;;;;4.70;3.40;;;35.10;85.20;;;;;;5072545;28;20463;-70
2023/08/16 12:43:13;;;;;;;4.50;3.70;;;35.20;85.20;;;;;;5071477;28;20502;-70
2023/08/16 12:45:40;;;;;;;6.00;4.10;;;35.30;87.70;;;;;;5072363;28;20578;-70
2023/08/16 12:48:11;;;;;;;5.10;4.00;;;35.40;88.80;;;;;;5072656;28;20453;-71